Adin, California
Current Conditions -  °F | °C
As of 6:55 PM on Thursday 18 Dec 2014 (Local Time) from KAAT Reporting Station
Broken Clouds Broken Clouds  
Wind Chill: 32°   Ceiling: 3400
Heat Index: 39°   Visibility: 10mi
Dew Point: 32°   Wind: 12mph
Humidity: 76%   Direction: 160°SSE
Pressure: 30.08"   Gusts: NA
Location:  41.19°N, 120.95°W
Report Text: KAAT 190255Z AUTO 16010KT 10SM BKN034 BKN049 BKN100 04/00 A3008 RMK AO2 SLP192 T00390000 56003
Loading
Personal Weather Stations






























Interactive Weather Map New forecast layout! Learn more

10-Day Weather Forecast

Advertisements
Track Severe Weather on mobile